sensor_id;sensor_type;location;lat;lon;timestamp;temperature;humidity
21495;DHT22;10909;53.590;10.054;2023-03-14T00:01:58;15.20;64.50
21495;DHT22;10909;53.590;10.054;2023-03-14T00:04:24;15.10;64.50
21495;DHT22;10909;53.590;10.054;2023-03-14T00:06:50;15.10;64.60
21495;DHT22;10909;53.590;10.054;2023-03-14T00:09:18;15.10;64.70
21495;DHT22;10909;53.590;10.054;2023-03-14T00:11:44;15.10;64.80
21495;DHT22;10909;53.590;10.054;2023-03-14T00:14:10;15.10;65.00
21495;DHT22;10909;53.590;10.054;2023-03-14T00:16:40;15.00;64.80
21495;DHT22;10909;53.590;10.054;2023-03-14T00:19:07;15.00;65.10
21495;DHT22;10909;53.590;10.054;2023-03-14T00:21:33;15.00;65.20
21495;DHT22;10909;53.590;10.054;2023-03-14T00:23:59;14.90;65.30
21495;DHT22;10909;53.590;10.054;2023-03-14T00:26:25;14.90;65.50
21495;DHT22;10909;53.590;10.054;2023-03-14T00:28:52;14.90;65.60
21495;DHT22;10909;53.590;10.054;2023-03-14T00:31:22;14.90;65.80
21495;DHT22;10909;53.590;10.054;2023-03-14T00:33:47;14.80;65.60
21495;DHT22;10909;53.590;10.054;2023-03-14T00:36:17;14.80;65.60
21495;DHT22;10909;53.590;10.054;2023-03-14T00:38:50;14.80;65.80
21495;DHT22;10909;53.590;10.054;2023-03-14T00:41:21;14.80;65.80
21495;DHT22;10909;53.590;10.054;2023-03-14T00:43:49;14.80;65.80
21495;DHT22;10909;53.590;10.054;2023-03-14T00:46:16;14.80;65.80
21495;DHT22;10909;53.590;10.054;2023-03-14T00:48:44;14.80;65.80
21495;DHT22;10909;53.590;10.054;2023-03-14T00:51:11;14.80;66.00
21495;DHT22;10909;53.590;10.054;2023-03-14T00:53:39;14.80;66.00
21495;DHT22;10909;53.590;10.054;2023-03-14T00:56:08;14.80;66.20
21495;DHT22;10909;53.590;10.054;2023-03-14T00:58:34;14.80;66.20
21495;DHT22;10909;53.590;10.054;2023-03-14T01:01:08;14.80;66.30
21495;DHT22;10909;53.590;10.054;2023-03-14T01:03:34;14.80;66.50
21495;DHT22;10909;53.590;10.054;2023-03-14T01:06:10;14.80;66.30
21495;DHT22;10909;53.590;10.054;2023-03-14T01:08:36;14.80;66.40
21495;DHT22;10909;53.590;10.054;2023-03-14T01:11:10;14.90;66.40
21495;DHT22;10909;53.590;10.054;2023-03-14T01:13:37;14.90;66.40
21495;DHT22;10909;53.590;10.054;2023-03-14T01:16:05;14.90;66.30
21495;DHT22;10909;53.590;10.054;2023-03-14T01:18:32;14.90;66.30
21495;DHT22;10909;53.590;10.054;2023-03-14T01:20:58;14.90;66.30
21495;DHT22;10909;53.590;10.054;2023-03-14T01:23:24;14.90;66.10
21495;DHT22;10909;53.590;10.054;2023-03-14T01:25:49;14.90;66.10
21495;DHT22;10909;53.590;10.054;2023-03-14T01:28:15;15.00;66.30
21495;DHT22;10909;53.590;10.054;2023-03-14T01:30:41;15.00;67.00
21495;DHT22;10909;53.590;10.054;2023-03-14T01:33:08;15.00;66.10
21495;DHT22;10909;53.590;10.054;2023-03-14T01:35:34;15.00;66.10
21495;DHT22;10909;53.590;10.054;2023-03-14T01:38:00;15.00;66.00
21495;DHT22;10909;53.590;10.054;2023-03-14T01:40:26;15.00;66.00
21495;DHT22;10909;53.590;10.054;2023-03-14T01:42:57;15.00;65.90
21495;DHT22;10909;53.590;10.054;2023-03-14T01:48:31;15.10;65.90
21495;DHT22;10909;53.590;10.054;2023-03-14T01:50:59;15.00;65.70
21495;DHT22;10909;53.590;10.054;2023-03-14T01:53:27;15.00;65.60
21495;DHT22;10909;53.590;10.054;2023-03-14T01:55:55;15.00;65.60
21495;DHT22;10909;53.590;10.054;2023-03-14T01:58:27;15.00;65.70
21495;DHT22;10909;53.590;10.054;2023-03-14T02:00:57;14.90;65.80
21495;DHT22;10909;53.590;10.054;2023-03-14T02:03:25;14.90;65.80
21495;DHT22;10909;53.590;10.054;2023-03-14T02:05:54;14.90;65.90
21495;DHT22;10909;53.590;10.054;2023-03-14T02:08:22;14.90;65.90
21495;DHT22;10909;53.590;10.054;2023-03-14T02:10:51;14.90;66.00
21495;DHT22;10909;53.590;10.054;2023-03-14T02:13:22;14.80;66.00
21495;DHT22;10909;53.590;10.054;2023-03-14T02:15:48;14.80;66.30
21495;DHT22;10909;53.590;10.054;2023-03-14T02:18:16;14.80;66.30
21495;DHT22;10909;53.590;10.054;2023-03-14T02:20:51;14.70;66.40
21495;DHT22;10909;53.590;10.054;2023-03-14T02:23:30;14.70;66.70
21495;DHT22;10909;53.590;10.054;2023-03-14T02:27:20;14.70;66.90
21495;DHT22;10909;53.590;10.054;2023-03-14T02:29:14;14.60;67.10
21495;DHT22;10909;53.590;10.054;2023-03-14T02:31:43;14.60;66.90
21495;DHT22;10909;53.590;10.054;2023-03-14T02:34:09;14.50;67.00
21495;DHT22;10909;53.590;10.054;2023-03-14T02:36:35;14.50;66.80
21495;DHT22;10909;53.590;10.054;2023-03-14T02:39:19;14.40;67.00
21495;DHT22;10909;53.590;10.054;2023-03-14T02:41:46;14.40;67.50
21495;DHT22;10909;53.590;10.054;2023-03-14T02:44:14;14.40;67.20
21495;DHT22;10909;53.590;10.054;2023-03-14T02:46:40;14.30;67.20
21495;DHT22;10909;53.590;10.054;2023-03-14T02:49:16;14.30;67.40
21495;DHT22;10909;53.590;10.054;2023-03-14T02:51:43;14.30;67.60
21495;DHT22;10909;53.590;10.054;2023-03-14T02:54:11;14.30;67.60
21495;DHT22;10909;53.590;10.054;2023-03-14T02:56:36;14.30;67.70
21495;DHT22;10909;53.590;10.054;2023-03-14T02:59:07;14.30;67.90
21495;DHT22;10909;53.590;10.054;2023-03-14T03:01:34;14.30;67.90
21495;DHT22;10909;53.590;10.054;2023-03-14T03:04:08;14.30;68.00
21495;DHT22;10909;53.590;10.054;2023-03-14T03:06:34;14.30;68.20
21495;DHT22;10909;53.590;10.054;2023-03-14T03:09:00;14.30;68.30
21495;DHT22;10909;53.590;10.054;2023-03-14T03:11:28;14.30;68.30
21495;DHT22;10909;53.590;10.054;2023-03-14T03:13:54;14.40;68.40
21495;DHT22;10909;53.590;10.054;2023-03-14T03:16:20;14.40;68.50
21495;DHT22;10909;53.590;10.054;2023-03-14T03:18:45;14.40;68.60
21495;DHT22;10909;53.590;10.054;2023-03-14T03:21:14;14.40;68.40
21495;DHT22;10909;53.590;10.054;2023-03-14T03:23:43;14.40;68.60
21495;DHT22;10909;53.590;10.054;2023-03-14T03:26:10;14.40;68.40
21495;DHT22;10909;53.590;10.054;2023-03-14T03:28:37;14.50;68.30
21495;DHT22;10909;53.590;10.054;2023-03-14T03:31:07;14.40;68.30
21495;DHT22;10909;53.590;10.054;2023-03-14T03:33:33;14.40;68.60
21495;DHT22;10909;53.590;10.054;2023-03-14T03:35:59;14.50;68.50
21495;DHT22;10909;53.590;10.054;2023-03-14T03:38:25;14.50;68.40
21495;DHT22;10909;53.590;10.054;2023-03-14T03:40:51;14.50;68.60
21495;DHT22;10909;53.590;10.054;2023-03-14T03:43:18;14.50;68.50
21495;DHT22;10909;53.590;10.054;2023-03-14T03:45:45;14.50;68.50
21495;DHT22;10909;53.590;10.054;2023-03-14T03:48:10;14.50;68.60
21495;DHT22;10909;53.590;10.054;2023-03-14T03:50:36;14.60;68.50
21495;DHT22;10909;53.590;10.054;2023-03-14T03:53:02;14.60;68.60
21495;DHT22;10909;53.590;10.054;2023-03-14T03:55:28;14.60;68.30
21495;DHT22;10909;53.590;10.054;2023-03-14T03:57:55;14.60;68.40
21495;DHT22;10909;53.590;10.054;2023-03-14T04:00:24;14.60;68.30
21495;DHT22;10909;53.590;10.054;2023-03-14T04:02:50;14.60;68.20
21495;DHT22;10909;53.590;10.054;2023-03-14T04:05:16;14.60;68.10
21495;DHT22;10909;53.590;10.054;2023-03-14T04:07:45;14.60;68.20
21495;DHT22;10909;53.590;10.054;2023-03-14T04:10:21;14.60;68.10
21495;DHT22;10909;53.590;10.054;2023-03-14T04:12:46;14.60;67.90
21495;DHT22;10909;53.590;10.054;2023-03-14T04:15:12;14.60;67.90
21495;DHT22;10909;53.590;10.054;2023-03-14T04:17:38;14.60;67.90
21495;DHT22;10909;53.590;10.054;2023-03-14T04:20:04;14.60;68.00
21495;DHT22;10909;53.590;10.054;2023-03-14T04:22:30;14.60;67.90
21495;DHT22;10909;53.590;10.054;2023-03-14T04:24:56;14.60;67.90
21495;DHT22;10909;53.590;10.054;2023-03-14T04:27:21;14.60;68.00
21495;DHT22;10909;53.590;10.054;2023-03-14T04:29:47;14.50;67.90
21495;DHT22;10909;53.590;10.054;2023-03-14T04:32:13;14.50;67.90
21495;DHT22;10909;53.590;10.054;2023-03-14T04:34:40;14.50;67.80
21495;DHT22;10909;53.590;10.054;2023-03-14T04:37:08;14.50;68.00
21495;DHT22;10909;53.590;10.054;2023-03-14T04:39:38;14.50;67.90
21495;DHT22;10909;53.590;10.054;2023-03-14T04:42:08;14.50;67.90
21495;DHT22;10909;53.590;10.054;2023-03-14T04:44:40;14.50;67.90
21495;DHT22;10909;53.590;10.054;2023-03-14T04:47:06;14.50;68.00
21495;DHT22;10909;53.590;10.054;2023-03-14T04:49:32;14.40;68.00
21495;DHT22;10909;53.590;10.054;2023-03-14T04:51:57;14.40;68.20
21495;DHT22;10909;53.590;10.054;2023-03-14T04:54:23;14.40;68.20
21495;DHT22;10909;53.590;10.054;2023-03-14T04:56:49;14.40;68.20
21495;DHT22;10909;53.590;10.054;2023-03-14T04:59:15;14.40;68.20
21495;DHT22;10909;53.590;10.054;2023-03-14T05:01:45;14.40;68.00
21495;DHT22;10909;53.590;10.054;2023-03-14T05:04:11;14.40;68.20
21495;DHT22;10909;53.590;10.054;2023-03-14T05:06:38;14.40;68.20
21495;DHT22;10909;53.590;10.054;2023-03-14T05:09:05;14.40;68.20
21495;DHT22;10909;53.590;10.054;2023-03-14T05:11:31;14.40;68.20
21495;DHT22;10909;53.590;10.054;2023-03-14T05:13:57;14.40;68.20
21495;DHT22;10909;53.590;10.054;2023-03-14T05:16:25;14.40;68.20
21495;DHT22;10909;53.590;10.054;2023-03-14T05:18:51;14.50;68.20
21495;DHT22;10909;53.590;10.054;2023-03-14T05:21:23;14.40;68.10
21495;DHT22;10909;53.590;10.054;2023-03-14T05:23:59;14.50;68.00
21495;DHT22;10909;53.590;10.054;2023-03-14T05:34:15;14.00;67.30
21495;DHT22;10909;53.590;10.054;2023-03-14T05:36:41;13.90;68.20
21495;DHT22;10909;53.590;10.054;2023-03-14T05:39:07;13.70;68.50
21495;DHT22;10909;53.590;10.054;2023-03-14T05:41:34;13.50;68.90
21495;DHT22;10909;53.590;10.054;2023-03-14T05:44:04;13.30;69.00
21495;DHT22;10909;53.590;10.054;2023-03-14T05:46:30;13.30;69.80
21495;DHT22;10909;53.590;10.054;2023-03-14T05:48:57;13.20;69.90
21495;DHT22;10909;53.590;10.054;2023-03-14T05:51:24;13.20;70.10
21495;DHT22;10909;53.590;10.054;2023-03-14T05:53:50;13.10;70.20
21495;DHT22;10909;53.590;10.054;2023-03-14T05:56:16;13.00;70.40
21495;DHT22;10909;53.590;10.054;2023-03-14T05:58:41;13.00;71.10
21495;DHT22;10909;53.590;10.054;2023-03-14T06:01:07;13.00;71.10
21495;DHT22;10909;53.590;10.054;2023-03-14T06:03:34;12.90;71.10
21495;DHT22;10909;53.590;10.054;2023-03-14T06:05:59;12.90;71.40
21495;DHT22;10909;53.590;10.054;2023-03-14T06:08:25;12.90;71.90
21495;DHT22;10909;53.590;10.054;2023-03-14T06:10:52;12.90;72.30
21495;DHT22;10909;53.590;10.054;2023-03-14T06:13:20;12.90;72.20
21495;DHT22;10909;53.590;10.054;2023-03-14T06:18:31;13.00;73.00
21495;DHT22;10909;53.590;10.054;2023-03-14T06:21:01;13.00;72.60
21495;DHT22;10909;53.590;10.054;2023-03-14T06:23:27;13.00;72.80
21495;DHT22;10909;53.590;10.054;2023-03-14T06:25:54;13.00;72.90
21495;DHT22;10909;53.590;10.054;2023-03-14T06:28:24;13.00;72.80
21495;DHT22;10909;53.590;10.054;2023-03-14T06:30:52;13.00;73.20
21495;DHT22;10909;53.590;10.054;2023-03-14T06:33:17;13.00;73.40
21495;DHT22;10909;53.590;10.054;2023-03-14T06:35:43;13.00;73.20
21495;DHT22;10909;53.590;10.054;2023-03-14T06:38:11;13.00;73.10
21495;DHT22;10909;53.590;10.054;2023-03-14T06:40:36;13.00;73.20
21495;DHT22;10909;53.590;10.054;2023-03-14T06:43:02;13.00;73.40
21495;DHT22;10909;53.590;10.054;2023-03-14T06:45:28;13.00;73.20
21495;DHT22;10909;53.590;10.054;2023-03-14T06:47:53;13.00;73.20
21495;DHT22;10909;53.590;10.054;2023-03-14T06:50:19;13.00;73.70
21495;DHT22;10909;53.590;10.054;2023-03-14T06:52:47;13.00;73.60
21495;DHT22;10909;53.590;10.054;2023-03-14T06:55:14;13.00;73.40
21495;DHT22;10909;53.590;10.054;2023-03-14T06:57:41;13.00;73.40
21495;DHT22;10909;53.590;10.054;2023-03-14T07:00:08;13.10;73.80
21495;DHT22;10909;53.590;10.054;2023-03-14T07:02:35;13.10;73.70
21495;DHT22;10909;53.590;10.054;2023-03-14T07:05:04;13.10;73.60
21495;DHT22;10909;53.590;10.054;2023-03-14T07:07:30;13.10;73.50
21495;DHT22;10909;53.590;10.054;2023-03-14T07:09:55;13.10;73.60
21495;DHT22;10909;53.590;10.054;2023-03-14T07:12:22;13.10;73.30
21495;DHT22;10909;53.590;10.054;2023-03-14T07:14:47;13.20;73.50
21495;DHT22;10909;53.590;10.054;2023-03-14T07:17:14;13.20;73.20
21495;DHT22;10909;53.590;10.054;2023-03-14T07:19:42;13.20;73.10
21495;DHT22;10909;53.590;10.054;2023-03-14T07:22:09;13.20;73.00
21495;DHT22;10909;53.590;10.054;2023-03-14T07:24:38;13.20;72.80
21495;DHT22;10909;53.590;10.054;2023-03-14T07:27:08;13.30;72.80
21495;DHT22;10909;53.590;10.054;2023-03-14T07:29:34;13.30;72.70
21495;DHT22;10909;53.590;10.054;2023-03-14T07:32:02;13.30;72.70
21495;DHT22;10909;53.590;10.054;2023-03-14T07:34:28;13.30;72.50
21495;DHT22;10909;53.590;10.054;2023-03-14T07:36:54;13.40;72.60
21495;DHT22;10909;53.590;10.054;2023-03-14T07:39:19;13.40;72.60
21495;DHT22;10909;53.590;10.054;2023-03-14T07:41:45;13.40;72.70
21495;DHT22;10909;53.590;10.054;2023-03-14T07:44:11;13.50;72.80
21495;DHT22;10909;53.590;10.054;2023-03-14T07:46:39;13.50;72.70
21495;DHT22;10909;53.590;10.054;2023-03-14T07:49:07;13.50;72.60
21495;DHT22;10909;53.590;10.054;2023-03-14T07:51:38;13.50;72.60
21495;DHT22;10909;53.590;10.054;2023-03-14T07:54:08;13.50;72.70
21495;DHT22;10909;53.590;10.054;2023-03-14T07:56:35;13.50;72.50
21495;DHT22;10909;53.590;10.054;2023-03-14T07:59:01;13.50;72.60
21495;DHT22;10909;53.590;10.054;2023-03-14T08:01:26;13.50;72.50
21495;DHT22;10909;53.590;10.054;2023-03-14T08:03:52;13.50;72.40
21495;DHT22;10909;53.590;10.054;2023-03-14T08:06:18;13.50;72.30
21495;DHT22;10909;53.590;10.054;2023-03-14T08:08:44;13.60;72.40
21495;DHT22;10909;53.590;10.054;2023-03-14T08:11:11;13.50;72.30
21495;DHT22;10909;53.590;10.054;2023-03-14T08:13:37;13.60;72.40
21495;DHT22;10909;53.590;10.054;2023-03-14T08:16:03;13.60;72.40
21495;DHT22;10909;53.590;10.054;2023-03-14T08:18:29;13.60;72.40
21495;DHT22;10909;53.590;10.054;2023-03-14T08:20:55;13.70;72.50
21495;DHT22;10909;53.590;10.054;2023-03-14T08:23:21;13.70;73.30
21495;DHT22;10909;53.590;10.054;2023-03-14T08:25:49;13.70;72.90
21495;DHT22;10909;53.590;10.054;2023-03-14T08:28:16;13.80;72.50
21495;DHT22;10909;53.590;10.054;2023-03-14T08:30:41;13.80;72.20
21495;DHT22;10909;53.590;10.054;2023-03-14T08:33:07;13.90;72.10
21495;DHT22;10909;53.590;10.054;2023-03-14T08:35:33;14.00;72.10
21495;DHT22;10909;53.590;10.054;2023-03-14T08:37:58;14.00;71.70
21495;DHT22;10909;53.590;10.054;2023-03-14T08:40:24;14.00;71.50
21495;DHT22;10909;53.590;10.054;2023-03-14T08:42:50;14.00;71.50
21495;DHT22;10909;53.590;10.054;2023-03-14T08:45:16;14.00;71.60
21495;DHT22;10909;53.590;10.054;2023-03-14T08:47:43;14.00;71.40
21495;DHT22;10909;53.590;10.054;2023-03-14T08:50:09;14.00;71.50
21495;DHT22;10909;53.590;10.054;2023-03-14T08:52:35;14.00;71.50
21495;DHT22;10909;53.590;10.054;2023-03-14T08:55:03;14.00;71.60
21495;DHT22;10909;53.590;10.054;2023-03-14T08:57:32;14.10;71.60
21495;DHT22;10909;53.590;10.054;2023-03-14T08:59:59;14.10;71.50
21495;DHT22;10909;53.590;10.054;2023-03-14T09:02:26;14.10;71.30
21495;DHT22;10909;53.590;10.054;2023-03-14T09:04:57;14.00;71.10
21495;DHT22;10909;53.590;10.054;2023-03-14T09:07:26;14.00;71.10
21495;DHT22;10909;53.590;10.054;2023-03-14T09:09:51;13.90;71.50
21495;DHT22;10909;53.590;10.054;2023-03-14T09:12:17;13.90;71.50
21495;DHT22;10909;53.590;10.054;2023-03-14T09:14:42;13.80;71.40
21495;DHT22;10909;53.590;10.054;2023-03-14T09:17:08;13.80;71.60
21495;DHT22;10909;53.590;10.054;2023-03-14T09:19:34;13.80;71.90
21495;DHT22;10909;53.590;10.054;2023-03-14T09:22:00;13.80;72.00
21495;DHT22;10909;53.590;10.054;2023-03-14T09:24:28;13.70;72.00
21495;DHT22;10909;53.590;10.054;2023-03-14T09:26:58;13.80;72.30
21495;DHT22;10909;53.590;10.054;2023-03-14T09:29:26;13.70;72.20
21495;DHT22;10909;53.590;10.054;2023-03-14T09:31:58;13.70;72.30
21495;DHT22;10909;53.590;10.054;2023-03-14T09:34:24;13.70;72.40
21495;DHT22;10909;53.590;10.054;2023-03-14T09:36:49;13.70;72.50
21495;DHT22;10909;53.590;10.054;2023-03-14T09:39:15;13.80;72.60
21495;DHT22;10909;53.590;10.054;2023-03-14T09:41:48;13.80;72.80
21495;DHT22;10909;53.590;10.054;2023-03-14T09:44:18;13.80;73.10
21495;DHT22;10909;53.590;10.054;2023-03-14T09:46:50;13.90;73.30
21495;DHT22;10909;53.590;10.054;2023-03-14T09:49:27;13.90;73.30
21495;DHT22;10909;53.590;10.054;2023-03-14T09:51:55;13.90;73.00
21495;DHT22;10909;53.590;10.054;2023-03-14T09:54:40;13.90;72.70
21495;DHT22;10909;53.590;10.054;2023-03-14T09:57:23;13.90;72.60
21495;DHT22;10909;53.590;10.054;2023-03-14T09:59:50;13.90;72.50
21495;DHT22;10909;53.590;10.054;2023-03-14T10:02:25;13.80;72.30
21495;DHT22;10909;53.590;10.054;2023-03-14T10:04:53;13.70;71.80
21495;DHT22;10909;53.590;10.054;2023-03-14T10:07:32;13.50;70.90
21495;DHT22;10909;53.590;10.054;2023-03-14T10:09:59;13.20;71.00
21495;DHT22;10909;53.590;10.054;2023-03-14T10:12:33;13.00;70.80
21495;DHT22;10909;53.590;10.054;2023-03-14T10:15:06;12.80;71.40
21495;DHT22;10909;53.590;10.054;2023-03-14T10:17:42;12.50;71.30
21495;DHT22;10909;53.590;10.054;2023-03-14T10:25:31;12.00;72.10
21495;DHT22;10909;53.590;10.054;2023-03-14T10:27:58;11.90;72.50
21495;DHT22;10909;53.590;10.054;2023-03-14T10:30:43;11.80;72.50
21495;DHT22;10909;53.590;10.054;2023-03-14T10:35:46;11.60;72.90
21495;DHT22;10909;53.590;10.054;2023-03-14T10:38:19;11.50;72.80
21495;DHT22;10909;53.590;10.054;2023-03-14T10:40:50;11.50;72.20
21495;DHT22;10909;53.590;10.054;2023-03-14T10:43:21;11.30;70.90
21495;DHT22;10909;53.590;10.054;2023-03-14T10:45:56;11.20;70.80
21495;DHT22;10909;53.590;10.054;2023-03-14T10:48:34;11.00;71.10
21495;DHT22;10909;53.590;10.054;2023-03-14T10:51:17;10.80;71.10
21495;DHT22;10909;53.590;10.054;2023-03-14T10:53:45;10.70;71.50
21495;DHT22;10909;53.590;10.054;2023-03-14T10:56:17;10.50;71.50
21495;DHT22;10909;53.590;10.054;2023-03-14T10:58:47;10.40;71.60
21495;DHT22;10909;53.590;10.054;2023-03-14T11:01:26;10.30;71.80
21495;DHT22;10909;53.590;10.054;2023-03-14T11:06:56;10.20;71.60
21495;DHT22;10909;53.590;10.054;2023-03-14T11:09:50;10.20;71.70
21495;DHT22;10909;53.590;10.054;2023-03-14T11:15:00;10.10;71.70
21495;DHT22;10909;53.590;10.054;2023-03-14T11:17:55;10.00;71.40
21495;DHT22;10909;53.590;10.054;2023-03-14T11:20:35;10.00;71.40
21495;DHT22;10909;53.590;10.054;2023-03-14T11:23:20;9.90;71.30
21495;DHT22;10909;53.590;10.054;2023-03-14T11:28:38;9.80;71.20
21495;DHT22;10909;53.590;10.054;2023-03-14T11:31:29;9.80;71.30
21495;DHT22;10909;53.590;10.054;2023-03-14T11:36:38;9.70;70.90
21495;DHT22;10909;53.590;10.054;2023-03-14T11:39:15;9.60;70.90
21495;DHT22;10909;53.590;10.054;2023-03-14T11:41:55;9.60;71.10
21495;DHT22;10909;53.590;10.054;2023-03-14T11:44:32;9.50;71.00
21495;DHT22;10909;53.590;10.054;2023-03-14T11:47:32;9.50;71.20
21495;DHT22;10909;53.590;10.054;2023-03-14T11:50:19;9.50;70.90
21495;DHT22;10909;53.590;10.054;2023-03-14T11:52:56;9.50;71.30
21495;DHT22;10909;53.590;10.054;2023-03-14T11:55:24;9.50;71.60
21495;DHT22;10909;53.590;10.054;2023-03-14T11:57:55;9.60;71.70
21495;DHT22;10909;53.590;10.054;2023-03-14T12:00:23;9.60;72.60
21495;DHT22;10909;53.590;10.054;2023-03-14T12:11:19;9.80;71.00
21495;DHT22;10909;53.590;10.054;2023-03-14T12:13:52;9.80;70.20
21495;DHT22;10909;53.590;10.054;2023-03-14T12:16:38;9.80;70.30
21495;DHT22;10909;53.590;10.054;2023-03-14T12:19:23;9.80;70.10
21495;DHT22;10909;53.590;10.054;2023-03-14T12:21:54;9.80;70.00
21495;DHT22;10909;53.590;10.054;2023-03-14T12:24:30;9.80;69.10
21495;DHT22;10909;53.590;10.054;2023-03-14T12:27:00;9.80;69.70
21495;DHT22;10909;53.590;10.054;2023-03-14T12:29:26;9.80;68.90
21495;DHT22;10909;53.590;10.054;2023-03-14T12:32:22;9.80;69.00
21495;DHT22;10909;53.590;10.054;2023-03-14T12:34:49;9.80;69.40
21495;DHT22;10909;53.590;10.054;2023-03-14T12:37:41;9.80;69.80
21495;DHT22;10909;53.590;10.054;2023-03-14T12:40:31;9.80;68.40
21495;DHT22;10909;53.590;10.054;2023-03-14T12:43:00;9.80;69.20
21495;DHT22;10909;53.590;10.054;2023-03-14T12:45:30;9.80;69.60
21495;DHT22;10909;53.590;10.054;2023-03-14T12:48:10;9.80;68.60
21495;DHT22;10909;53.590;10.054;2023-03-14T12:53:36;9.80;70.20
21495;DHT22;10909;53.590;10.054;2023-03-14T13:02:23;9.80;69.40
21495;DHT22;10909;53.590;10.054;2023-03-14T13:04:52;9.80;69.70
21495;DHT22;10909;53.590;10.054;2023-03-14T13:15:31;10.00;70.00
21495;DHT22;10909;53.590;10.054;2023-03-14T13:23:24;10.00;68.60
21495;DHT22;10909;53.590;10.054;2023-03-14T13:25:50;10.00;68.70
21495;DHT22;10909;53.590;10.054;2023-03-14T13:28:16;10.00;69.90
21495;DHT22;10909;53.590;10.054;2023-03-14T13:30:44;10.10;67.60
21495;DHT22;10909;53.590;10.054;2023-03-14T13:33:18;10.20;68.70
21495;DHT22;10909;53.590;10.054;2023-03-14T13:35:53;10.30;65.10
21495;DHT22;10909;53.590;10.054;2023-03-14T13:38:27;10.40;66.70
21495;DHT22;10909;53.590;10.054;2023-03-14T13:40:58;10.40;64.70
21495;DHT22;10909;53.590;10.054;2023-03-14T13:43:33;10.40;63.70
21495;DHT22;10909;53.590;10.054;2023-03-14T13:49:33;10.40;59.20
21495;DHT22;10909;53.590;10.054;2023-03-14T13:51:39;10.40;60.60
21495;DHT22;10909;53.590;10.054;2023-03-14T13:54:20;10.40;62.30
21495;DHT22;10909;53.590;10.054;2023-03-14T13:56:47;10.40;58.50
21495;DHT22;10909;53.590;10.054;2023-03-14T13:59:27;10.30;57.30
21495;DHT22;10909;53.590;10.054;2023-03-14T14:01:53;10.30;59.10
21495;DHT22;10909;53.590;10.054;2023-03-14T14:04:22;10.40;61.50
21495;DHT22;10909;53.590;10.054;2023-03-14T14:06:57;10.40;60.90
21495;DHT22;10909;53.590;10.054;2023-03-14T14:09:31;10.40;59.60
21495;DHT22;10909;53.590;10.054;2023-03-14T14:12:35;10.50;61.10
21495;DHT22;10909;53.590;10.054;2023-03-14T14:15:06;10.50;57.10
21495;DHT22;10909;53.590;10.054;2023-03-14T14:17:38;10.40;59.20
21495;DHT22;10909;53.590;10.054;2023-03-14T14:20:08;10.40;59.00
21495;DHT22;10909;53.590;10.054;2023-03-14T14:22:36;10.40;59.10
21495;DHT22;10909;53.590;10.054;2023-03-14T14:25:05;10.50;59.10
21495;DHT22;10909;53.590;10.054;2023-03-14T14:27:37;10.60;58.80
21495;DHT22;10909;53.590;10.054;2023-03-14T14:30:29;10.70;57.60
21495;DHT22;10909;53.590;10.054;2023-03-14T14:33:11;10.70;57.60
21495;DHT22;10909;53.590;10.054;2023-03-14T14:35:38;10.70;57.80
21495;DHT22;10909;53.590;10.054;2023-03-14T14:38:12;10.90;59.40
21495;DHT22;10909;53.590;10.054;2023-03-14T14:40:47;11.10;58.90
21495;DHT22;10909;53.590;10.054;2023-03-14T14:43:21;11.20;58.50
21495;DHT22;10909;53.590;10.054;2023-03-14T14:45:51;11.30;57.70
21495;DHT22;10909;53.590;10.054;2023-03-14T14:48:22;11.40;57.10
21495;DHT22;10909;53.590;10.054;2023-03-14T14:51:02;11.30;56.10
21495;DHT22;10909;53.590;10.054;2023-03-14T14:56:20;11.20;53.40
21495;DHT22;10909;53.590;10.054;2023-03-14T14:58:51;11.10;55.40
21495;DHT22;10909;53.590;10.054;2023-03-14T15:01:25;11.00;55.50
21495;DHT22;10909;53.590;10.054;2023-03-14T15:03:56;11.00;55.90
21495;DHT22;10909;53.590;10.054;2023-03-14T15:06:24;11.00;56.00
21495;DHT22;10909;53.590;10.054;2023-03-14T15:08:52;11.10;55.80
21495;DHT22;10909;53.590;10.054;2023-03-14T15:11:23;11.30;56.90
21495;DHT22;10909;53.590;10.054;2023-03-14T15:13:50;11.50;56.30
21495;DHT22;10909;53.590;10.054;2023-03-14T15:16:17;11.70;56.40
21495;DHT22;10909;53.590;10.054;2023-03-14T15:18:54;11.70;56.40
21495;DHT22;10909;53.590;10.054;2023-03-14T15:21:24;11.90;55.00
21495;DHT22;10909;53.590;10.054;2023-03-14T15:23:51;11.90;55.30
21495;DHT22;10909;53.590;10.054;2023-03-14T15:26:27;11.90;55.90
21495;DHT22;10909;53.590;10.054;2023-03-14T15:28:53;12.00;54.30
21495;DHT22;10909;53.590;10.054;2023-03-14T15:31:20;12.00;55.50
21495;DHT22;10909;53.590;10.054;2023-03-14T15:33:50;12.10;54.90
21495;DHT22;10909;53.590;10.054;2023-03-14T15:36:21;12.20;54.90
21495;DHT22;10909;53.590;10.054;2023-03-14T15:38:48;12.30;54.50
21495;DHT22;10909;53.590;10.054;2023-03-14T15:41:14;12.40;54.30
21495;DHT22;10909;53.590;10.054;2023-03-14T15:43:41;12.40;54.70
21495;DHT22;10909;53.590;10.054;2023-03-14T15:46:09;12.30;53.40
21495;DHT22;10909;53.590;10.054;2023-03-14T15:48:35;12.20;52.40
21495;DHT22;10909;53.590;10.054;2023-03-14T15:51:01;12.00;53.20
21495;DHT22;10909;53.590;10.054;2023-03-14T15:53:48;11.90;52.40
21495;DHT22;10909;53.590;10.054;2023-03-14T15:56:20;11.70;52.30
21495;DHT22;10909;53.590;10.054;2023-03-14T15:58:46;11.60;51.90
21495;DHT22;10909;53.590;10.054;2023-03-14T16:01:13;11.40;52.50
21495;DHT22;10909;53.590;10.054;2023-03-14T16:03:39;11.30;52.50
21495;DHT22;10909;53.590;10.054;2023-03-14T16:06:05;11.10;52.10
21495;DHT22;10909;53.590;10.054;2023-03-14T16:08:31;11.00;52.90
21495;DHT22;10909;53.590;10.054;2023-03-14T16:10:58;10.90;53.20
21495;DHT22;10909;53.590;10.054;2023-03-14T16:13:24;10.80;53.80
21495;DHT22;10909;53.590;10.054;2023-03-14T16:15:58;10.70;52.30
21495;DHT22;10909;53.590;10.054;2023-03-14T16:18:24;10.70;53.40
21495;DHT22;10909;53.590;10.054;2023-03-14T16:20:57;10.60;52.60
21495;DHT22;10909;53.590;10.054;2023-03-14T16:23:24;10.40;51.30
21495;DHT22;10909;53.590;10.054;2023-03-14T16:25:50;10.30;52.60
21495;DHT22;10909;53.590;10.054;2023-03-14T16:28:16;10.20;52.70
21495;DHT22;10909;53.590;10.054;2023-03-14T16:30:42;10.10;52.20
21495;DHT22;10909;53.590;10.054;2023-03-14T16:33:08;10.00;52.10
21495;DHT22;10909;53.590;10.054;2023-03-14T16:35:36;10.00;53.30
21495;DHT22;10909;53.590;10.054;2023-03-14T16:38:02;9.90;53.80
21495;DHT22;10909;53.590;10.054;2023-03-14T16:40:28;9.80;53.90
21495;DHT22;10909;53.590;10.054;2023-03-14T16:42:53;9.70;54.10